sensor_id;sensor_type;location;lat;lon;timestamp;temperature;humidity
12845;DHT22;68700;48.534;9.196;2024-02-14T00:02:23;1.40;99.90
12845;DHT22;68700;48.534;9.196;2024-02-14T00:05:46;1.50;99.90
12845;DHT22;68700;48.534;9.196;2024-02-14T00:09:09;1.50;99.90
12845;DHT22;68700;48.534;9.196;2024-02-14T00:12:32;1.40;99.90
12845;DHT22;68700;48.534;9.196;2024-02-14T00:15:53;1.30;99.90
12845;DHT22;68700;48.534;9.196;2024-02-14T00:19:17;1.40;99.90
12845;DHT22;68700;48.534;9.196;2024-02-14T00:22:39;1.40;99.90
12845;DHT22;68700;48.534;9.196;2024-02-14T00:26:02;1.50;99.90
12845;DHT22;68700;48.534;9.196;2024-02-14T00:29:24;1.60;99.90
12845;DHT22;68700;48.534;9.196;2024-02-14T00:32:48;1.70;99.90
12845;DHT22;68700;48.534;9.196;2024-02-14T00:36:10;1.70;99.90
12845;DHT22;68700;48.534;9.196;2024-02-14T00:39:31;1.80;99.90
12845;DHT22;68700;48.534;9.196;2024-02-14T00:42:55;1.80;99.90
12845;DHT22;68700;48.534;9.196;2024-02-14T00:46:17;1.90;99.90
12845;DHT22;68700;48.534;9.196;2024-02-14T00:49:39;1.90;99.90
12845;DHT22;68700;48.534;9.196;2024-02-14T00:53:01;1.90;99.90
12845;DHT22;68700;48.534;9.196;2024-02-14T00:56:23;2.00;99.90
12845;DHT22;68700;48.534;9.196;2024-02-14T00:59:46;2.00;99.90
12845;DHT22;68700;48.534;9.196;2024-02-14T01:03:08;2.20;99.90
12845;DHT22;68700;48.534;9.196;2024-02-14T01:06:33;2.30;99.90
12845;DHT22;68700;48.534;9.196;2024-02-14T01:09:55;2.30;99.90
12845;DHT22;68700;48.534;9.196;2024-02-14T01:13:17;2.30;78.70
12845;DHT22;68700;48.534;9.196;2024-02-14T01:16:43;2.40;90.70
12845;DHT22;68700;48.534;9.196;2024-02-14T01:20:06;2.50;80.50
12845;DHT22;68700;48.534;9.196;2024-02-14T01:23:29;2.50;49.20
12845;DHT22;68700;48.534;9.196;2024-02-14T01:26:51;2.50;76.50
12845;DHT22;68700;48.534;9.196;2024-02-14T01:30:14;2.50;45.50
12845;DHT22;68700;48.534;9.196;2024-02-14T01:33:38;2.50;62.20
12845;DHT22;68700;48.534;9.196;2024-02-14T01:37:00;2.50;87.20
12845;DHT22;68700;48.534;9.196;2024-02-14T01:40:24;2.40;99.90
12845;DHT22;68700;48.534;9.196;2024-02-14T01:43:46;2.40;99.90
12845;DHT22;68700;48.534;9.196;2024-02-14T01:47:08;2.40;99.90
12845;DHT22;68700;48.534;9.196;2024-02-14T01:50:32;2.40;99.90
12845;DHT22;68700;48.534;9.196;2024-02-14T01:53:55;2.50;99.90
12845;DHT22;68700;48.534;9.196;2024-02-14T01:57:17;2.40;99.90
12845;DHT22;68700;48.534;9.196;2024-02-14T02:00:39;2.40;99.90
12845;DHT22;68700;48.534;9.196;2024-02-14T02:04:02;2.50;99.90
12845;DHT22;68700;48.534;9.196;2024-02-14T02:07:25;2.50;99.90
12845;DHT22;68700;48.534;9.196;2024-02-14T02:10:47;2.50;99.90
12845;DHT22;68700;48.534;9.196;2024-02-14T02:14:09;2.60;99.90
12845;DHT22;68700;48.534;9.196;2024-02-14T02:17:33;2.60;99.90
12845;DHT22;68700;48.534;9.196;2024-02-14T02:20:55;2.70;99.90
12845;DHT22;68700;48.534;9.196;2024-02-14T02:24:18;2.80;99.90
12845;DHT22;68700;48.534;9.196;2024-02-14T02:27:39;2.80;99.90
12845;DHT22;68700;48.534;9.196;2024-02-14T02:31:01;2.80;99.90
12845;DHT22;68700;48.534;9.196;2024-02-14T02:34:23;2.80;99.90
12845;DHT22;68700;48.534;9.196;2024-02-14T02:37:45;2.80;99.90
12845;DHT22;68700;48.534;9.196;2024-02-14T02:41:09;2.80;99.90
12845;DHT22;68700;48.534;9.196;2024-02-14T02:44:31;2.60;99.90
12845;DHT22;68700;48.534;9.196;2024-02-14T02:47:53;2.60;99.90
12845;DHT22;68700;48.534;9.196;2024-02-14T02:51:16;2.60;99.90
12845;DHT22;68700;48.534;9.196;2024-02-14T02:54:39;2.60;99.90
12845;DHT22;68700;48.534;9.196;2024-02-14T02:58:03;2.70;99.90
12845;DHT22;68700;48.534;9.196;2024-02-14T03:01:26;2.80;99.90
12845;DHT22;68700;48.534;9.196;2024-02-14T03:04:51;2.80;99.90
12845;DHT22;68700;48.534;9.196;2024-02-14T03:08:13;2.80;99.90
12845;DHT22;68700;48.534;9.196;2024-02-14T03:11:36;2.80;99.90
12845;DHT22;68700;48.534;9.196;2024-02-14T03:14:59;2.90;99.90
12845;DHT22;68700;48.534;9.196;2024-02-14T03:18:22;2.90;99.90
12845;DHT22;68700;48.534;9.196;2024-02-14T03:21:44;2.90;99.90
12845;DHT22;68700;48.534;9.196;2024-02-14T03:25:08;2.90;99.90
12845;DHT22;68700;48.534;9.196;2024-02-14T03:28:30;2.90;99.90
12845;DHT22;68700;48.534;9.196;2024-02-14T03:31:53;2.90;99.90
12845;DHT22;68700;48.534;9.196;2024-02-14T03:35:17;2.90;99.90
12845;DHT22;68700;48.534;9.196;2024-02-14T03:38:40;2.90;99.90
12845;DHT22;68700;48.534;9.196;2024-02-14T03:42:02;2.80;99.90
12845;DHT22;68700;48.534;9.196;2024-02-14T03:45:28;2.80;99.90
12845;DHT22;68700;48.534;9.196;2024-02-14T03:48:51;2.70;99.90
12845;DHT22;68700;48.534;9.196;2024-02-14T03:52:13;2.70;99.90
12845;DHT22;68700;48.534;9.196;2024-02-14T03:55:35;2.70;99.90
12845;DHT22;68700;48.534;9.196;2024-02-14T03:58:57;2.70;99.90
12845;DHT22;68700;48.534;9.196;2024-02-14T04:02:18;2.70;99.90
12845;DHT22;68700;48.534;9.196;2024-02-14T04:05:42;2.70;99.90
12845;DHT22;68700;48.534;9.196;2024-02-14T04:09:04;2.70;99.90
12845;DHT22;68700;48.534;9.196;2024-02-14T04:12:26;2.70;99.90
12845;DHT22;68700;48.534;9.196;2024-02-14T04:15:47;2.70;99.90
12845;DHT22;68700;48.534;9.196;2024-02-14T04:19:09;2.80;99.90
12845;DHT22;68700;48.534;9.196;2024-02-14T04:22:34;2.80;99.90
12845;DHT22;68700;48.534;9.196;2024-02-14T04:25:58;2.80;99.90
12845;DHT22;68700;48.534;9.196;2024-02-14T04:29:20;2.90;99.90
12845;DHT22;68700;48.534;9.196;2024-02-14T04:32:42;2.90;99.90
12845;DHT22;68700;48.534;9.196;2024-02-14T04:36:05;2.80;99.90
12845;DHT22;68700;48.534;9.196;2024-02-14T04:39:28;2.70;99.90
12845;DHT22;68700;48.534;9.196;2024-02-14T04:42:50;2.60;99.90
12845;DHT22;68700;48.534;9.196;2024-02-14T04:46:12;2.50;99.90
12845;DHT22;68700;48.534;9.196;2024-02-14T04:49:33;2.40;99.90
12845;DHT22;68700;48.534;9.196;2024-02-14T04:52:55;2.30;99.90
12845;DHT22;68700;48.534;9.196;2024-02-14T04:56:18;2.20;99.90
12845;DHT22;68700;48.534;9.196;2024-02-14T04:59:40;2.10;99.90
12845;DHT22;68700;48.534;9.196;2024-02-14T05:03:02;2.10;99.90
12845;DHT22;68700;48.534;9.196;2024-02-14T05:06:24;2.00;99.90
12845;DHT22;68700;48.534;9.196;2024-02-14T05:09:46;2.00;99.90
12845;DHT22;68700;48.534;9.196;2024-02-14T05:13:12;2.10;99.90
12845;DHT22;68700;48.534;9.196;2024-02-14T05:16:36;2.30;99.90
12845;DHT22;68700;48.534;9.196;2024-02-14T05:19:58;2.40;99.90
12845;DHT22;68700;48.534;9.196;2024-02-14T05:23:19;2.50;99.90
12845;DHT22;68700;48.534;9.196;2024-02-14T05:26:41;2.60;99.90
12845;DHT22;68700;48.534;9.196;2024-02-14T05:30:06;2.70;99.90
12845;DHT22;68700;48.534;9.196;2024-02-14T05:33:28;2.70;99.90
12845;DHT22;68700;48.534;9.196;2024-02-14T05:36:50;2.80;99.90
12845;DHT22;68700;48.534;9.196;2024-02-14T05:40:13;2.90;99.90
12845;DHT22;68700;48.534;9.196;2024-02-14T05:43:34;2.90;99.90
12845;DHT22;68700;48.534;9.196;2024-02-14T05:46:58;3.00;99.90
12845;DHT22;68700;48.534;9.196;2024-02-14T05:50:20;3.00;99.90
12845;DHT22;68700;48.534;9.196;2024-02-14T05:53:42;3.00;99.90
12845;DHT22;68700;48.534;9.196;2024-02-14T05:57:04;3.00;99.90
12845;DHT22;68700;48.534;9.196;2024-02-14T06:00:27;3.00;99.90
12845;DHT22;68700;48.534;9.196;2024-02-14T06:03:51;3.00;99.90
12845;DHT22;68700;48.534;9.196;2024-02-14T06:07:13;3.00;99.90
12845;DHT22;68700;48.534;9.196;2024-02-14T06:10:35;3.00;99.90
12845;DHT22;68700;48.534;9.196;2024-02-14T06:14:01;2.90;99.90
12845;DHT22;68700;48.534;9.196;2024-02-14T06:17:24;2.80;99.90
12845;DHT22;68700;48.534;9.196;2024-02-14T06:20:48;2.80;99.90
12845;DHT22;68700;48.534;9.196;2024-02-14T06:24:10;2.80;99.90
12845;DHT22;68700;48.534;9.196;2024-02-14T06:27:33;2.90;99.90
12845;DHT22;68700;48.534;9.196;2024-02-14T06:30:55;2.90;99.90
12845;DHT22;68700;48.534;9.196;2024-02-14T06:34:17;2.90;99.90
12845;DHT22;68700;48.534;9.196;2024-02-14T06:37:41;3.00;99.90
12845;DHT22;68700;48.534;9.196;2024-02-14T06:41:03;3.00;99.90
12845;DHT22;68700;48.534;9.196;2024-02-14T06:44:25;3.10;99.90
12845;DHT22;68700;48.534;9.196;2024-02-14T06:47:47;3.30;99.90
12845;DHT22;68700;48.534;9.196;2024-02-14T06:51:09;3.40;99.90
12845;DHT22;68700;48.534;9.196;2024-02-14T06:54:32;3.50;99.90
12845;DHT22;68700;48.534;9.196;2024-02-14T06:57:54;3.50;99.90
12845;DHT22;68700;48.534;9.196;2024-02-14T07:01:17;3.60;99.90
12845;DHT22;68700;48.534;9.196;2024-02-14T07:04:42;3.60;99.90
12845;DHT22;68700;48.534;9.196;2024-02-14T07:08:04;3.60;99.90
12845;DHT22;68700;48.534;9.196;2024-02-14T07:11:28;3.70;99.90
12845;DHT22;68700;48.534;9.196;2024-02-14T07:14:50;3.70;99.90
12845;DHT22;68700;48.534;9.196;2024-02-14T07:18:12;3.80;99.90
12845;DHT22;68700;48.534;9.196;2024-02-14T07:21:34;4.00;99.90
12845;DHT22;68700;48.534;9.196;2024-02-14T07:24:58;4.30;99.90
12845;DHT22;68700;48.534;9.196;2024-02-14T07:28:22;4.50;99.90
12845;DHT22;68700;48.534;9.196;2024-02-14T07:31:44;4.60;99.90
12845;DHT22;68700;48.534;9.196;2024-02-14T07:35:07;5.20;99.90
12845;DHT22;68700;48.534;9.196;2024-02-14T07:38:29;6.10;99.90
12845;DHT22;68700;48.534;9.196;2024-02-14T07:41:50;6.50;1.00
12845;DHT22;68700;48.534;9.196;2024-02-14T07:45:14;6.60;1.00
12845;DHT22;68700;48.534;9.196;2024-02-14T07:48:37;6.40;1.00
12845;DHT22;68700;48.534;9.196;2024-02-14T07:52:00;6.50;1.00
12845;DHT22;68700;48.534;9.196;2024-02-14T07:55:22;6.60;1.00
12845;DHT22;68700;48.534;9.196;2024-02-14T07:58:44;6.60;1.00
12845;DHT22;68700;48.534;9.196;2024-02-14T08:02:08;6.60;1.00
12845;DHT22;68700;48.534;9.196;2024-02-14T08:05:29;6.70;1.00
12845;DHT22;68700;48.534;9.196;2024-02-14T08:08:51;6.90;1.00
12845;DHT22;68700;48.534;9.196;2024-02-14T08:12:17;7.10;1.00
12845;DHT22;68700;48.534;9.196;2024-02-14T08:15:39;7.30;1.00
12845;DHT22;68700;48.534;9.196;2024-02-14T08:19:03;7.70;1.00
12845;DHT22;68700;48.534;9.196;2024-02-14T08:22:25;8.10;1.00
12845;DHT22;68700;48.534;9.196;2024-02-14T08:25:47;8.30;1.00
12845;DHT22;68700;48.534;9.196;2024-02-14T08:29:10;8.20;1.00
12845;DHT22;68700;48.534;9.196;2024-02-14T08:32:34;8.40;1.00
12845;DHT22;68700;48.534;9.196;2024-02-14T08:35:57;8.70;1.00
12845;DHT22;68700;48.534;9.196;2024-02-14T08:39:20;8.90;1.00
12845;DHT22;68700;48.534;9.196;2024-02-14T08:42:42;9.00;1.00
12845;DHT22;68700;48.534;9.196;2024-02-14T08:46:09;9.30;1.00
12845;DHT22;68700;48.534;9.196;2024-02-14T08:49:31;9.30;1.00
12845;DHT22;68700;48.534;9.196;2024-02-14T08:52:55;9.30;1.00
12845;DHT22;68700;48.534;9.196;2024-02-14T08:56:17;9.60;1.00
12845;DHT22;68700;48.534;9.196;2024-02-14T08:59:39;9.60;1.00
12845;DHT22;68700;48.534;9.196;2024-02-14T09:03:04;9.60;1.00
12845;DHT22;68700;48.534;9.196;2024-02-14T09:06:26;9.80;1.00
12845;DHT22;68700;48.534;9.196;2024-02-14T09:09:50;9.80;1.00
12845;DHT22;68700;48.534;9.196;2024-02-14T09:13:12;9.80;1.00
12845;DHT22;68700;48.534;9.196;2024-02-14T09:16:35;9.70;1.00
12845;DHT22;68700;48.534;9.196;2024-02-14T09:19:57;9.90;1.00
12845;DHT22;68700;48.534;9.196;2024-02-14T09:23:32;10.00;1.00
12845;DHT22;68700;48.534;9.196;2024-02-14T09:26:55;10.20;1.00
12845;DHT22;68700;48.534;9.196;2024-02-14T09:30:17;10.30;1.00
12845;DHT22;68700;48.534;9.196;2024-02-14T09:33:39;10.30;1.00
12845;DHT22;68700;48.534;9.196;2024-02-14T09:37:01;10.30;1.00
12845;DHT22;68700;48.534;9.196;2024-02-14T09:40:23;10.30;1.00
12845;DHT22;68700;48.534;9.196;2024-02-14T09:43:48;10.30;1.00
12845;DHT22;68700;48.534;9.196;2024-02-14T09:47:10;10.40;1.00
12845;DHT22;68700;48.534;9.196;2024-02-14T09:50:32;10.70;1.00
12845;DHT22;68700;48.534;9.196;2024-02-14T09:53:55;10.60;1.00
12845;DHT22;68700;48.534;9.196;2024-02-14T09:57:18;10.80;1.00
12845;DHT22;68700;48.534;9.196;2024-02-14T10:00:41;11.30;1.00
12845;DHT22;68700;48.534;9.196;2024-02-14T10:04:03;11.70;1.00
12845;DHT22;68700;48.534;9.196;2024-02-14T10:07:26;12.60;1.00
12845;DHT22;68700;48.534;9.196;2024-02-14T10:10:48;13.50;1.00
12845;DHT22;68700;48.534;9.196;2024-02-14T10:14:10;14.30;1.00
12845;DHT22;68700;48.534;9.196;2024-02-14T10:17:34;15.00;1.00
12845;DHT22;68700;48.534;9.196;2024-02-14T10:20:56;15.40;99.90
12845;DHT22;68700;48.534;9.196;2024-02-14T10:24:18;15.50;99.90
12845;DHT22;68700;48.534;9.196;2024-02-14T10:27:40;15.40;1.40
12845;DHT22;68700;48.534;9.196;2024-02-14T10:31:05;15.30;99.90
12845;DHT22;68700;48.534;9.196;2024-02-14T10:34:29;14.80;1.40
12845;DHT22;68700;48.534;9.196;2024-02-14T10:37:51;15.90;99.90
12845;DHT22;68700;48.534;9.196;2024-02-14T10:41:14;16.80;99.90
12845;DHT22;68700;48.534;9.196;2024-02-14T10:44:36;18.30;99.90
12845;DHT22;68700;48.534;9.196;2024-02-14T10:48:00;19.00;99.90
12845;DHT22;68700;48.534;9.196;2024-02-14T10:51:25;19.10;99.90
12845;DHT22;68700;48.534;9.196;2024-02-14T10:54:55;19.40;99.90
12845;DHT22;68700;48.534;9.196;2024-02-14T10:58:18;19.80;99.90
12845;DHT22;68700;48.534;9.196;2024-02-14T11:01:41;18.60;99.90
12845;DHT22;68700;48.534;9.196;2024-02-14T11:05:04;19.80;99.90
12845;DHT22;68700;48.534;9.196;2024-02-14T11:08:30;18.30;99.90
12845;DHT22;68700;48.534;9.196;2024-02-14T11:12:00;17.50;99.90
12845;DHT22;68700;48.534;9.196;2024-02-14T11:15:23;17.10;99.90
12845;DHT22;68700;48.534;9.196;2024-02-14T11:18:46;16.80;99.90
12845;DHT22;68700;48.534;9.196;2024-02-14T11:22:12;16.60;99.90
12845;DHT22;68700;48.534;9.196;2024-02-14T11:25:37;16.10;1.00
12845;DHT22;68700;48.534;9.196;2024-02-14T11:29:04;15.90;1.00
12845;DHT22;68700;48.534;9.196;2024-02-14T11:32:27;15.20;1.00
12845;DHT22;68700;48.534;9.196;2024-02-14T11:35:51;15.00;1.00
12845;DHT22;68700;48.534;9.196;2024-02-14T11:39:13;15.00;1.00
12845;DHT22;68700;48.534;9.196;2024-02-14T11:42:37;15.40;1.00
12845;DHT22;68700;48.534;9.196;2024-02-14T11:45:59;15.40;1.00
12845;DHT22;68700;48.534;9.196;2024-02-14T11:49:22;15.10;1.00
12845;DHT22;68700;48.534;9.196;2024-02-14T11:52:44;15.30;1.00
12845;DHT22;68700;48.534;9.196;2024-02-14T11:56:06;15.60;1.00
12845;DHT22;68700;48.534;9.196;2024-02-14T11:59:29;15.90;1.00
12845;DHT22;68700;48.534;9.196;2024-02-14T12:02:51;15.60;1.00
12845;DHT22;68700;48.534;9.196;2024-02-14T12:06:13;15.80;1.00
12845;DHT22;68700;48.534;9.196;2024-02-14T12:09:36;16.90;1.00
12845;DHT22;68700;48.534;9.196;2024-02-14T12:12:58;17.40;1.00
12845;DHT22;68700;48.534;9.196;2024-02-14T12:16:21;17.70;1.40
12845;DHT22;68700;48.534;9.196;2024-02-14T12:19:43;18.00;99.90
12845;DHT22;68700;48.534;9.196;2024-02-14T12:23:05;17.70;99.90
12845;DHT22;68700;48.534;9.196;2024-02-14T12:26:27;17.30;1.40
12845;DHT22;68700;48.534;9.196;2024-02-14T12:29:51;17.70;99.90
12845;DHT22;68700;48.534;9.196;2024-02-14T12:33:14;17.00;99.90
12845;DHT22;68700;48.534;9.196;2024-02-14T12:36:37;16.60;1.40
12845;DHT22;68700;48.534;9.196;2024-02-14T12:39:59;16.40;1.00
12845;DHT22;68700;48.534;9.196;2024-02-14T12:43:21;17.00;99.90
12845;DHT22;68700;48.534;9.196;2024-02-14T12:46:43;17.20;99.90
12845;DHT22;68700;48.534;9.196;2024-02-14T12:50:07;17.70;99.90
12845;DHT22;68700;48.534;9.196;2024-02-14T12:53:30;17.70;99.90
12845;DHT22;68700;48.534;9.196;2024-02-14T12:56:52;17.70;1.00
12845;DHT22;68700;48.534;9.196;2024-02-14T13:00:14;18.80;99.90
12845;DHT22;68700;48.534;9.196;2024-02-14T13:03:36;20.30;1.40
12845;DHT22;68700;48.534;9.196;2024-02-14T13:06:59;20.10;99.90
12845;DHT22;68700;48.534;9.196;2024-02-14T13:10:22;19.50;99.90
12845;DHT22;68700;48.534;9.196;2024-02-14T13:13:44;18.80;99.90
12845;DHT22;68700;48.534;9.196;2024-02-14T13:17:06;17.90;99.90
12845;DHT22;68700;48.534;9.196;2024-02-14T13:20:28;17.10;99.90
12845;DHT22;68700;48.534;9.196;2024-02-14T13:23:51;16.60;1.00
12845;DHT22;68700;48.534;9.196;2024-02-14T13:27:13;16.70;1.00
12845;DHT22;68700;48.534;9.196;2024-02-14T13:30:35;17.00;99.90
12845;DHT22;68700;48.534;9.196;2024-02-14T13:33:56;16.90;1.40
12845;DHT22;68700;48.534;9.196;2024-02-14T13:37:18;16.90;1.00
12845;DHT22;68700;48.534;9.196;2024-02-14T13:40:42;17.20;99.90
12845;DHT22;68700;48.534;9.196;2024-02-14T13:44:06;16.90;99.90
12845;DHT22;68700;48.534;9.196;2024-02-14T13:47:28;16.30;1.00
12845;DHT22;68700;48.534;9.196;2024-02-14T13:50:50;16.00;1.00
12845;DHT22;68700;48.534;9.196;2024-02-14T13:54:12;16.00;1.00
12845;DHT22;68700;48.534;9.196;2024-02-14T13:57:36;15.70;1.00
12845;DHT22;68700;48.534;9.196;2024-02-14T14:00:59;15.40;1.00
12845;DHT22;68700;48.534;9.196;2024-02-14T14:04:21;15.00;1.00
12845;DHT22;68700;48.534;9.196;2024-02-14T14:07:43;15.10;1.00
12845;DHT22;68700;48.534;9.196;2024-02-14T14:11:05;14.80;1.00
12845;DHT22;68700;48.534;9.196;2024-02-14T14:14:30;14.90;1.00
12845;DHT22;68700;48.534;9.196;2024-02-14T14:17:51;14.70;1.00
12845;DHT22;68700;48.534;9.196;2024-02-14T14:21:13;14.90;1.00
12845;DHT22;68700;48.534;9.196;2024-02-14T14:24:35;14.60;1.00
12845;DHT22;68700;48.534;9.196;2024-02-14T14:27:58;14.50;1.00
12845;DHT22;68700;48.534;9.196;2024-02-14T14:31:22;14.50;1.00
12845;DHT22;68700;48.534;9.196;2024-02-14T14:34:44;14.50;1.00
12845;DHT22;68700;48.534;9.196;2024-02-14T14:38:06;14.40;1.00
12845;DHT22;68700;48.534;9.196;2024-02-14T14:41:28;14.30;1.00
12845;DHT22;68700;48.534;9.196;2024-02-14T14:44:50;14.60;1.00
12845;DHT22;68700;48.534;9.196;2024-02-14T14:48:13;14.50;1.00
12845;DHT22;68700;48.534;9.196;2024-02-14T14:51:35;14.80;1.00
12845;DHT22;68700;48.534;9.196;2024-02-14T14:54:58;14.80;1.00
12845;DHT22;68700;48.534;9.196;2024-02-14T14:58:20;15.10;1.00
12845;DHT22;68700;48.534;9.196;2024-02-14T15:01:42;15.30;1.00
12845;DHT22;68700;48.534;9.196;2024-02-14T15:05:07;15.20;1.00
12845;DHT22;68700;48.534;9.196;2024-02-14T15:08:29;15.10;1.00
12845;DHT22;68700;48.534;9.196;2024-02-14T15:11:51;15.10;1.00
12845;DHT22;68700;48.534;9.196;2024-02-14T15:15:14;15.30;1.00
12845;DHT22;68700;48.534;9.196;2024-02-14T15:18:37;15.60;1.00
12845;DHT22;68700;48.534;9.196;2024-02-14T15:22:00;15.50;1.00
12845;DHT22;68700;48.534;9.196;2024-02-14T15:25:23;15.90;1.00
12845;DHT22;68700;48.534;9.196;2024-02-14T15:28:46;15.60;1.00
12845;DHT22;68700;48.534;9.196;2024-02-14T15:32:18;15.40;1.00
12845;DHT22;68700;48.534;9.196;2024-02-14T15:35:57;15.10;1.00
12845;DHT22;68700;48.534;9.196;2024-02-14T15:39:21;15.00;1.00
12845;DHT22;68700;48.534;9.196;2024-02-14T15:42:43;14.90;1.00
12845;DHT22;68700;48.534;9.196;2024-02-14T15:46:05;14.80;1.00
12845;DHT22;68700;48.534;9.196;2024-02-14T15:49:27;14.30;1.00
12845;DHT22;68700;48.534;9.196;2024-02-14T15:52:49;14.10;1.00
12845;DHT22;68700;48.534;9.196;2024-02-14T15:56:13;14.00;1.00
12845;DHT22;68700;48.534;9.196;2024-02-14T15:59:35;14.00;1.00
12845;DHT22;68700;48.534;9.196;2024-02-14T16:02:57;13.90;1.00
12845;DHT22;68700;48.534;9.196;2024-02-14T16:06:19;13.80;1.00
12845;DHT22;68700;48.534;9.196;2024-02-14T16:09:41;13.70;1.00
12845;DHT22;68700;48.534;9.196;2024-02-14T16:13:04;13.60;1.00
12845;DHT22;68700;48.534;9.196;2024-02-14T16:16:27;13.50;1.00
12845;DHT22;68700;48.534;9.196;2024-02-14T16:19:50;13.30;1.00
12845;DHT22;68700;48.534;9.196;2024-02-14T16:23:12;13.20;1.00
12845;DHT22;68700;48.534;9.196;2024-02-14T16:26:34;13.10;1.00
12845;DHT22;68700;48.534;9.196;2024-02-14T16:34:14;12.80;1.00
12845;DHT22;68700;48.534;9.196;2024-02-14T16:37:36;12.70;1.00
12845;DHT22;68700;48.534;9.196;2024-02-14T16:40:58;12.60;1.00
12845;DHT22;68700;48.534;9.196;2024-02-14T16:44:20;12.50;1.00
12845;DHT22;68700;48.534;9.196;2024-02-14T16:47:42;12.40;1.00
12845;DHT22;68700;48.534;9.196;2024-02-14T16:51:05;12.30;1.00
12845;DHT22;68700;48.534;9.196;2024-02-14T16:54:28;12.20;1.00
12845;DHT22;68700;48.534;9.196;2024-02-14T16:57:51;12.20;1.00
12845;DHT22;68700;48.534;9.196;2024-02-14T17:01:14;12.10;1.00
12845;DHT22;68700;48.534;9.196;2024-02-14T17:04:36;12.00;1.00
12845;DHT22;68700;48.534;9.196;2024-02-14T17:07:59;11.90;1.00
12845;DHT22;68700;48.534;9.196;2024-02-14T17:11:21;11.90;1.00
12845;DHT22;68700;48.534;9.196;2024-02-14T17:14:43;11.90;1.00
12845;DHT22;68700;48.534;9.196;2024-02-14T17:18:05;11.80;1.00
12845;DHT22;68700;48.534;9.196;2024-02-14T17:21:28;11.70;1.00
12845;DHT22;68700;48.534;9.196;2024-02-14T17:24:52;11.70;1.00
12845;DHT22;68700;48.534;9.196;2024-02-14T17:28:15;11.60;1.00
12845;DHT22;68700;48.534;9.196;2024-02-14T17:31:37;11.50;1.00
12845;DHT22;68700;48.534;9.196;2024-02-14T17:34:59;11.40;1.00
12845;DHT22;68700;48.534;9.196;2024-02-14T17:38:21;11.30;1.00
12845;DHT22;68700;48.534;9.196;2024-02-14T17:41:44;11.30;1.00
12845;DHT22;68700;48.534;9.196;2024-02-14T17:45:07;11.30;1.00
12845;DHT22;68700;48.534;9.196;2024-02-14T17:48:29;11.20;1.00
12845;DHT22;68700;48.534;9.196;2024-02-14T17:51:53;11.10;1.00
12845;DHT22;68700;48.534;9.196;2024-02-14T17:55:15;11.10;1.00
12845;DHT22;68700;48.534;9.196;2024-02-14T17:58:40;11.00;1.00
12845;DHT22;68700;48.534;9.196;2024-02-14T18:02:02;11.00;1.00
12845;DHT22;68700;48.534;9.196;2024-02-14T18:05:24;11.00;1.00
12845;DHT22;68700;48.534;9.196;2024-02-14T18:08:46;10.90;1.00
12845;DHT22;68700;48.534;9.196;2024-02-14T18:12:09;10.90;1.00
12845;DHT22;68700;48.534;9.196;2024-02-14T18:15:33;10.90;1.00
12845;DHT22;68700;48.534;9.196;2024-02-14T18:18:55;10.90;1.00
12845;DHT22;68700;48.534;9.196;2024-02-14T18:22:17;10.80;1.00
12845;DHT22;68700;48.534;9.196;2024-02-14T18:25:39;10.80;1.00
12845;DHT22;68700;48.534;9.196;2024-02-14T18:29:02;10.70;1.00
12845;DHT22;68700;48.534;9.196;2024-02-14T18:32:25;10.80;1.00
12845;DHT22;68700;48.534;9.196;2024-02-14T18:35:47;10.80;1.00
12845;DHT22;68700;48.534;9.196;2024-02-14T18:39:09;10.70;1.00
12845;DHT22;68700;48.534;9.196;2024-02-14T18:42:31;10.70;1.00
12845;DHT22;68700;48.534;9.196;2024-02-14T18:45:53;10.70;1.00
12845;DHT22;68700;48.534;9.196;2024-02-14T18:49:17;10.70;1.00
12845;DHT22;68700;48.534;9.196;2024-02-14T18:52:39;10.70;1.00
12845;DHT22;68700;48.534;9.196;2024-02-14T18:56:01;10.70;1.00
12845;DHT22;68700;48.534;9.196;2024-02-14T18:59:23;10.60;1.00
12845;DHT22;68700;48.534;9.196;2024-02-14T19:02:45;10.60;1.00
12845;DHT22;68700;48.534;9.196;2024-02-14T19:06:08;10.50;1.00
12845;DHT22;68700;48.534;9.196;2024-02-14T19:09:30;10.40;1.00
12845;DHT22;68700;48.534;9.196;2024-02-14T19:12:52;10.40;13.30
12845;DHT22;68700;48.534;9.196;2024-02-14T19:16:14;10.30;10.40
12845;DHT22;68700;48.534;9.196;2024-02-14T19:19:36;10.30;16.10
12845;DHT22;68700;48.534;9.196;2024-02-14T19:22:59;10.30;17.90
12845;DHT22;68700;48.534;9.196;2024-02-14T19:26:22;10.30;22.30
12845;DHT22;68700;48.534;9.196;2024-02-14T19:29:44;10.30;15.10
12845;DHT22;68700;48.534;9.196;2024-02-14T19:33:06;10.30;18.10
12845;DHT22;68700;48.534;9.196;2024-02-14T19:36:28;10.20;32.30
12845;DHT22;68700;48.534;9.196;2024-02-14T19:39:55;10.20;29.00
12845;DHT22;68700;48.534;9.196;2024-02-14T19:43:17;10.20;37.80
12845;DHT22;68700;48.534;9.196;2024-02-14T19:46:43;10.10;45.70
12845;DHT22;68700;48.534;9.196;2024-02-14T19:50:06;10.10;86.20
12845;DHT22;68700;48.534;9.196;2024-02-14T19:53:30;10.10;69.70
12845;DHT22;68700;48.534;9.196;2024-02-14T19:56:53;10.00;76.50
12845;DHT22;68700;48.534;9.196;2024-02-14T20:00:16;9.90;74.60
12845;DHT22;68700;48.534;9.196;2024-02-14T20:03:39;9.80;99.90
12845;DHT22;68700;48.534;9.196;2024-02-14T20:07:02;9.80;99.90
12845;DHT22;68700;48.534;9.196;2024-02-14T20:10:27;9.80;99.90
12845;DHT22;68700;48.534;9.196;2024-02-14T20:13:50;9.70;99.90
12845;DHT22;68700;48.534;9.196;2024-02-14T20:17:12;9.70;99.90
12845;DHT22;68700;48.534;9.196;2024-02-14T20:20:34;9.60;99.90
12845;DHT22;68700;48.534;9.196;2024-02-14T20:23:56;9.70;99.90
12845;DHT22;68700;48.534;9.196;2024-02-14T20:27:19;9.70;99.90
12845;DHT22;68700;48.534;9.196;2024-02-14T20:30:42;9.70;99.90
12845;DHT22;68700;48.534;9.196;2024-02-14T20:34:04;9.70;99.90
12845;DHT22;68700;48.534;9.196;2024-02-14T20:37:26;9.60;99.90
12845;DHT22;68700;48.534;9.196;2024-02-14T20:40:48;9.60;99.90
12845;DHT22;68700;48.534;9.196;2024-02-14T20:44:10;9.60;99.90
12845;DHT22;68700;48.534;9.196;2024-02-14T20:47:34;9.60;99.90
12845;DHT22;68700;48.534;9.196;2024-02-14T20:50:56;9.60;99.90
12845;DHT22;68700;48.534;9.196;2024-02-14T20:54:17;9.50;99.90
12845;DHT22;68700;48.534;9.196;2024-02-14T20:57:40;9.40;99.90
12845;DHT22;68700;48.534;9.196;2024-02-14T21:01:02;9.30;99.90
12845;DHT22;68700;48.534;9.196;2024-02-14T21:04:25;9.30;99.90
12845;DHT22;68700;48.534;9.196;2024-02-14T21:07:47;9.30;99.90
12845;DHT22;68700;48.534;9.196;2024-02-14T21:11:09;9.30;99.90
12845;DHT22;68700;48.534;9.196;2024-02-14T21:14:31;9.30;99.90
12845;DHT22;68700;48.534;9.196;2024-02-14T21:17:53;9.30;99.90
12845;DHT22;68700;48.534;9.196;2024-02-14T21:21:16;9.30;99.90
12845;DHT22;68700;48.534;9.196;2024-02-14T21:24:38;9.30;99.90
12845;DHT22;68700;48.534;9.196;2024-02-14T21:28:00;9.40;99.90
12845;DHT22;68700;48.534;9.196;2024-02-14T21:31:23;9.50;99.90
12845;DHT22;68700;48.534;9.196;2024-02-14T21:34:45;9.70;99.90
12845;DHT22;68700;48.534;9.196;2024-02-14T21:38:08;9.70;99.90
12845;DHT22;68700;48.534;9.196;2024-02-14T21:41:30;9.70;99.90
12845;DHT22;68700;48.534;9.196;2024-02-14T21:44:52;9.70;98.20